sensor_id;sensor_type;location;lat;lon;timestamp;P1;durP1;ratioP1;P2;durP2;ratioP2
3573;SDS011;1801;51.050;6.246;2024-03-08T00:00:37;32.60;;;15.60;;
3573;SDS011;1801;51.050;6.246;2024-03-08T00:03:03;32.93;;;18.10;;
3573;SDS011;1801;51.050;6.246;2024-03-08T00:05:29;33.20;;;16.00;;
3573;SDS011;1801;51.050;6.246;2024-03-08T00:07:54;37.33;;;17.10;;
3573;SDS011;1801;51.050;6.246;2024-03-08T00:10:20;42.33;;;19.10;;
3573;SDS011;1801;51.050;6.246;2024-03-08T00:12:46;37.20;;;18.57;;
3573;SDS011;1801;51.050;6.246;2024-03-08T00:15:15;38.77;;;16.97;;
3573;SDS011;1801;51.050;6.246;2024-03-08T00:17:42;35.20;;;17.48;;
3573;SDS011;1801;51.050;6.246;2024-03-08T00:20:07;37.72;;;18.65;;
3573;SDS011;1801;51.050;6.246;2024-03-08T00:22:39;39.35;;;16.75;;
3573;SDS011;1801;51.050;6.246;2024-03-08T00:25:04;39.08;;;16.95;;
3573;SDS011;1801;51.050;6.246;2024-03-08T00:27:30;38.50;;;17.77;;
3573;SDS011;1801;51.050;6.246;2024-03-08T00:29:56;32.70;;;16.47;;
3573;SDS011;1801;51.050;6.246;2024-03-08T00:32:21;38.50;;;17.77;;
3573;SDS011;1801;51.050;6.246;2024-03-08T00:34:49;34.45;;;16.40;;
3573;SDS011;1801;51.050;6.246;2024-03-08T00:37:16;40.15;;;15.07;;
3573;SDS011;1801;51.050;6.246;2024-03-08T00:39:42;40.40;;;17.83;;
3573;SDS011;1801;51.050;6.246;2024-03-08T00:42:07;36.70;;;16.90;;
3573;SDS011;1801;51.050;6.246;2024-03-08T00:44:32;36.50;;;16.33;;
3573;SDS011;1801;51.050;6.246;2024-03-08T00:46:57;34.90;;;17.13;;
3573;SDS011;1801;51.050;6.246;2024-03-08T00:49:24;45.08;;;18.10;;
3573;SDS011;1801;51.050;6.246;2024-03-08T00:51:49;36.70;;;16.67;;
3573;SDS011;1801;51.050;6.246;2024-03-08T00:54:14;37.00;;;17.10;;
3573;SDS011;1801;51.050;6.246;2024-03-08T00:56:41;37.38;;;17.98;;
3573;SDS011;1801;51.050;6.246;2024-03-08T00:59:06;34.63;;;16.23;;
3573;SDS011;1801;51.050;6.246;2024-03-08T01:01:32;30.97;;;15.37;;
3573;SDS011;1801;51.050;6.246;2024-03-08T01:03:58;36.15;;;16.13;;
3573;SDS011;1801;51.050;6.246;2024-03-08T01:06:23;38.03;;;17.03;;
3573;SDS011;1801;51.050;6.246;2024-03-08T01:08:48;35.17;;;17.27;;
3573;SDS011;1801;51.050;6.246;2024-03-08T01:11:17;36.78;;;16.95;;
3573;SDS011;1801;51.050;6.246;2024-03-08T01:13:43;41.30;;;16.77;;
3573;SDS011;1801;51.050;6.246;2024-03-08T01:16:08;35.87;;;15.90;;
3573;SDS011;1801;51.050;6.246;2024-03-08T01:18:35;35.13;;;16.77;;
3573;SDS011;1801;51.050;6.246;2024-03-08T01:21:00;30.60;;;15.27;;
3573;SDS011;1801;51.050;6.246;2024-03-08T01:23:25;39.33;;;17.70;;
3573;SDS011;1801;51.050;6.246;2024-03-08T01:25:50;41.00;;;18.70;;
3573;SDS011;1801;51.050;6.246;2024-03-08T01:28:21;39.63;;;17.25;;
3573;SDS011;1801;51.050;6.246;2024-03-08T01:30:47;35.10;;;16.40;;
3573;SDS011;1801;51.050;6.246;2024-03-08T01:33:15;32.27;;;15.67;;
3573;SDS011;1801;51.050;6.246;2024-03-08T01:35:40;36.58;;;16.83;;
3573;SDS011;1801;51.050;6.246;2024-03-08T01:38:06;36.50;;;16.70;;
3573;SDS011;1801;51.050;6.246;2024-03-08T01:40:31;35.30;;;16.37;;
3573;SDS011;1801;51.050;6.246;2024-03-08T01:42:57;36.63;;;15.23;;
3573;SDS011;1801;51.050;6.246;2024-03-08T01:45:22;38.37;;;16.57;;
3573;SDS011;1801;51.050;6.246;2024-03-08T01:47:47;36.90;;;17.67;;
3573;SDS011;1801;51.050;6.246;2024-03-08T01:50:13;35.65;;;14.68;;
3573;SDS011;1801;51.050;6.246;2024-03-08T01:52:39;40.67;;;16.10;;
3573;SDS011;1801;51.050;6.246;2024-03-08T01:55:04;49.03;;;18.20;;
3573;SDS011;1801;51.050;6.246;2024-03-08T01:57:32;35.03;;;16.08;;
3573;SDS011;1801;51.050;6.246;2024-03-08T01:59:58;37.50;;;16.60;;
3573;SDS011;1801;51.050;6.246;2024-03-08T02:02:24;44.67;;;18.10;;
3573;SDS011;1801;51.050;6.246;2024-03-08T02:04:50;35.77;;;15.93;;
3573;SDS011;1801;51.050;6.246;2024-03-08T02:07:17;49.47;;;16.15;;
3573;SDS011;1801;51.050;6.246;2024-03-08T02:09:43;43.53;;;17.27;;
3573;SDS011;1801;51.050;6.246;2024-03-08T02:12:08;35.20;;;16.63;;
3573;SDS011;1801;51.050;6.246;2024-03-08T02:14:33;37.50;;;17.00;;
3573;SDS011;1801;51.050;6.246;2024-03-08T02:17:02;38.30;;;18.17;;
3573;SDS011;1801;51.050;6.246;2024-03-08T02:19:27;34.95;;;15.80;;
3573;SDS011;1801;51.050;6.246;2024-03-08T02:21:52;34.40;;;15.50;;
3573;SDS011;1801;51.050;6.246;2024-03-08T02:24:18;39.60;;;17.33;;
3573;SDS011;1801;51.050;6.246;2024-03-08T02:26:44;38.83;;;16.27;;
3573;SDS011;1801;51.050;6.246;2024-03-08T02:29:09;39.13;;;16.40;;
3573;SDS011;1801;51.050;6.246;2024-03-08T02:31:34;40.93;;;17.17;;
3573;SDS011;1801;51.050;6.246;2024-03-08T02:33:59;39.37;;;18.33;;
3573;SDS011;1801;51.050;6.246;2024-03-08T02:36:25;39.70;;;17.27;;
3573;SDS011;1801;51.050;6.246;2024-03-08T02:38:50;50.17;;;18.33;;
3573;SDS011;1801;51.050;6.246;2024-03-08T02:41:15;35.67;;;16.70;;
3573;SDS011;1801;51.050;6.246;2024-03-08T02:43:40;33.73;;;14.83;;
3573;SDS011;1801;51.050;6.246;2024-03-08T02:46:05;36.23;;;16.70;;
3573;SDS011;1801;51.050;6.246;2024-03-08T02:48:31;34.47;;;16.30;;
3573;SDS011;1801;51.050;6.246;2024-03-08T02:50:56;39.87;;;17.30;;
3573;SDS011;1801;51.050;6.246;2024-03-08T02:53:21;37.07;;;17.00;;
3573;SDS011;1801;51.050;6.246;2024-03-08T02:55:47;47.27;;;18.63;;
3573;SDS011;1801;51.050;6.246;2024-03-08T02:58:12;44.77;;;18.47;;
3573;SDS011;1801;51.050;6.246;2024-03-08T03:00:39;37.50;;;18.10;;
3573;SDS011;1801;51.050;6.246;2024-03-08T03:03:05;35.75;;;14.95;;
3573;SDS011;1801;51.050;6.246;2024-03-08T03:05:31;36.07;;;16.00;;
3573;SDS011;1801;51.050;6.246;2024-03-08T03:07:56;39.73;;;16.70;;
3573;SDS011;1801;51.050;6.246;2024-03-08T03:10:23;44.92;;;18.20;;
3573;SDS011;1801;51.050;6.246;2024-03-08T03:12:49;36.60;;;17.07;;
3573;SDS011;1801;51.050;6.246;2024-03-08T03:15:14;43.23;;;18.03;;
3573;SDS011;1801;51.050;6.246;2024-03-08T03:17:45;39.47;;;18.00;;
3573;SDS011;1801;51.050;6.246;2024-03-08T03:20:11;44.05;;;18.75;;
3573;SDS011;1801;51.050;6.246;2024-03-08T03:22:38;47.50;;;17.23;;
3573;SDS011;1801;51.050;6.246;2024-03-08T03:25:03;43.37;;;17.83;;
3573;SDS011;1801;51.050;6.246;2024-03-08T03:27:31;49.25;;;18.25;;
3573;SDS011;1801;51.050;6.246;2024-03-08T03:29:57;41.67;;;19.73;;
3573;SDS011;1801;51.050;6.246;2024-03-08T03:32:22;41.10;;;19.43;;
3573;SDS011;1801;51.050;6.246;2024-03-08T03:34:48;40.00;;;18.00;;
3573;SDS011;1801;51.050;6.246;2024-03-08T03:37:13;46.47;;;17.40;;
3573;SDS011;1801;51.050;6.246;2024-03-08T03:39:39;37.57;;;18.20;;
3573;SDS011;1801;51.050;6.246;2024-03-08T03:42:17;38.80;;;18.15;;
3573;SDS011;1801;51.050;6.246;2024-03-08T03:44:46;40.60;;;17.23;;
3573;SDS011;1801;51.050;6.246;2024-03-08T03:47:12;42.13;;;16.92;;
3573;SDS011;1801;51.050;6.246;2024-03-08T03:49:37;41.30;;;17.87;;
3573;SDS011;1801;51.050;6.246;2024-03-08T03:52:02;61.27;;;19.63;;
3573;SDS011;1801;51.050;6.246;2024-03-08T03:54:29;43.55;;;18.50;;
3573;SDS011;1801;51.050;6.246;2024-03-08T03:56:55;39.75;;;16.88;;
3573;SDS011;1801;51.050;6.246;2024-03-08T03:59:20;42.50;;;17.87;;
3573;SDS011;1801;51.050;6.246;2024-03-08T04:01:46;42.53;;;16.33;;
3573;SDS011;1801;51.050;6.246;2024-03-08T04:04:11;42.97;;;18.50;;
3573;SDS011;1801;51.050;6.246;2024-03-08T04:06:37;46.50;;;19.33;;
3573;SDS011;1801;51.050;6.246;2024-03-08T04:09:02;42.53;;;18.10;;
3573;SDS011;1801;51.050;6.246;2024-03-08T04:11:27;45.13;;;18.73;;
3573;SDS011;1801;51.050;6.246;2024-03-08T04:13:53;43.87;;;16.97;;
3573;SDS011;1801;51.050;6.246;2024-03-08T04:16:19;52.45;;;19.63;;
3573;SDS011;1801;51.050;6.246;2024-03-08T04:18:44;42.53;;;19.43;;
3573;SDS011;1801;51.050;6.246;2024-03-08T04:21:10;40.77;;;17.03;;
3573;SDS011;1801;51.050;6.246;2024-03-08T04:23:36;47.10;;;18.33;;
3573;SDS011;1801;51.050;6.246;2024-03-08T04:26:02;53.30;;;19.53;;
3573;SDS011;1801;51.050;6.246;2024-03-08T04:28:28;48.85;;;20.42;;
3573;SDS011;1801;51.050;6.246;2024-03-08T04:30:53;43.20;;;17.70;;
3573;SDS011;1801;51.050;6.246;2024-03-08T04:33:19;46.10;;;19.70;;
3573;SDS011;1801;51.050;6.246;2024-03-08T04:35:46;47.03;;;19.25;;
3573;SDS011;1801;51.050;6.246;2024-03-08T04:38:11;39.73;;;17.20;;
3573;SDS011;1801;51.050;6.246;2024-03-08T04:40:36;42.23;;;18.83;;
3573;SDS011;1801;51.050;6.246;2024-03-08T04:43:02;52.67;;;19.70;;
3573;SDS011;1801;51.050;6.246;2024-03-08T04:45:27;55.60;;;21.70;;
3573;SDS011;1801;51.050;6.246;2024-03-08T04:47:52;42.20;;;18.80;;
3573;SDS011;1801;51.050;6.246;2024-03-08T04:50:18;40.37;;;16.60;;
3573;SDS011;1801;51.050;6.246;2024-03-08T04:52:43;39.13;;;16.03;;
3573;SDS011;1801;51.050;6.246;2024-03-08T04:55:08;39.57;;;17.70;;
3573;SDS011;1801;51.050;6.246;2024-03-08T04:57:34;52.17;;;19.00;;
3573;SDS011;1801;51.050;6.246;2024-03-08T04:59:59;53.67;;;19.60;;
3573;SDS011;1801;51.050;6.246;2024-03-08T05:02:24;48.37;;;17.73;;
3573;SDS011;1801;51.050;6.246;2024-03-08T05:04:50;44.80;;;18.83;;
3573;SDS011;1801;51.050;6.246;2024-03-08T05:07:15;36.90;;;16.13;;
3573;SDS011;1801;51.050;6.246;2024-03-08T05:09:41;44.77;;;18.13;;
3573;SDS011;1801;51.050;6.246;2024-03-08T05:12:06;40.40;;;16.73;;
3573;SDS011;1801;51.050;6.246;2024-03-08T05:14:33;44.10;;;18.02;;
3573;SDS011;1801;51.050;6.246;2024-03-08T05:16:59;53.75;;;19.80;;
3573;SDS011;1801;51.050;6.246;2024-03-08T05:19:25;37.33;;;17.17;;
3573;SDS011;1801;51.050;6.246;2024-03-08T05:21:51;40.10;;;17.27;;
3573;SDS011;1801;51.050;6.246;2024-03-08T05:24:16;47.13;;;18.50;;
3573;SDS011;1801;51.050;6.246;2024-03-08T05:26:42;44.47;;;17.53;;
3573;SDS011;1801;51.050;6.246;2024-03-08T05:29:07;38.80;;;18.77;;
3573;SDS011;1801;51.050;6.246;2024-03-08T05:31:46;39.60;;;16.90;;
3573;SDS011;1801;51.050;6.246;2024-03-08T05:34:12;45.75;;;19.13;;
3573;SDS011;1801;51.050;6.246;2024-03-08T05:36:39;43.53;;;17.90;;
3573;SDS011;1801;51.050;6.246;2024-03-08T05:39:04;44.20;;;17.97;;
3573;SDS011;1801;51.050;6.246;2024-03-08T05:41:31;42.65;;;17.27;;
3573;SDS011;1801;51.050;6.246;2024-03-08T05:43:56;40.10;;;17.27;;
3573;SDS011;1801;51.050;6.246;2024-03-08T05:46:23;52.00;;;17.00;;
3573;SDS011;1801;51.050;6.246;2024-03-08T05:48:49;44.40;;;17.65;;
3573;SDS011;1801;51.050;6.246;2024-03-08T05:51:14;50.13;;;20.23;;
3573;SDS011;1801;51.050;6.246;2024-03-08T05:53:40;41.70;;;18.33;;
3573;SDS011;1801;51.050;6.246;2024-03-08T05:56:05;38.03;;;17.40;;
3573;SDS011;1801;51.050;6.246;2024-03-08T05:58:30;51.20;;;17.73;;
3573;SDS011;1801;51.050;6.246;2024-03-08T06:00:56;47.83;;;17.10;;
3573;SDS011;1801;51.050;6.246;2024-03-08T06:03:21;47.27;;;17.17;;
3573;SDS011;1801;51.050;6.246;2024-03-08T06:05:48;35.70;;;16.33;;
3573;SDS011;1801;51.050;6.246;2024-03-08T06:08:13;41.92;;;17.40;;
3573;SDS011;1801;51.050;6.246;2024-03-08T06:10:39;36.33;;;16.00;;
3573;SDS011;1801;51.050;6.246;2024-03-08T06:13:05;44.10;;;18.20;;
3573;SDS011;1801;51.050;6.246;2024-03-08T06:15:30;42.63;;;17.03;;
3573;SDS011;1801;51.050;6.246;2024-03-08T06:17:55;42.30;;;17.83;;
3573;SDS011;1801;51.050;6.246;2024-03-08T06:20:20;44.97;;;17.30;;
3573;SDS011;1801;51.050;6.246;2024-03-08T06:22:51;50.13;;;17.73;;
3573;SDS011;1801;51.050;6.246;2024-03-08T06:25:16;41.40;;;17.80;;
3573;SDS011;1801;51.050;6.246;2024-03-08T06:27:42;40.27;;;16.67;;
3573;SDS011;1801;51.050;6.246;2024-03-08T06:30:11;48.15;;;18.33;;
3573;SDS011;1801;51.050;6.246;2024-03-08T06:32:37;38.83;;;16.17;;
3573;SDS011;1801;51.050;6.246;2024-03-08T06:35:03;34.87;;;16.10;;
3573;SDS011;1801;51.050;6.246;2024-03-08T06:37:31;43.90;;;17.17;;
3573;SDS011;1801;51.050;6.246;2024-03-08T06:39:56;41.17;;;16.67;;
3573;SDS011;1801;51.050;6.246;2024-03-08T06:42:22;38.67;;;16.70;;
3573;SDS011;1801;51.050;6.246;2024-03-08T06:44:47;35.53;;;16.93;;
3573;SDS011;1801;51.050;6.246;2024-03-08T06:47:16;47.15;;;16.42;;
3573;SDS011;1801;51.050;6.246;2024-03-08T06:49:44;45.85;;;19.15;;
3573;SDS011;1801;51.050;6.246;2024-03-08T06:52:10;40.10;;;16.92;;
3573;SDS011;1801;51.050;6.246;2024-03-08T06:54:36;45.17;;;19.03;;
3573;SDS011;1801;51.050;6.246;2024-03-08T06:57:04;47.33;;;17.90;;
3573;SDS011;1801;51.050;6.246;2024-03-08T06:59:30;43.50;;;17.48;;
3573;SDS011;1801;51.050;6.246;2024-03-08T07:01:55;39.63;;;17.20;;
3573;SDS011;1801;51.050;6.246;2024-03-08T07:04:20;51.23;;;17.50;;
3573;SDS011;1801;51.050;6.246;2024-03-08T07:06:46;45.97;;;17.88;;
3573;SDS011;1801;51.050;6.246;2024-03-08T07:09:15;39.72;;;16.77;;
3573;SDS011;1801;51.050;6.246;2024-03-08T07:11:41;46.38;;;17.95;;
3573;SDS011;1801;51.050;6.246;2024-03-08T07:14:07;40.77;;;17.50;;
3573;SDS011;1801;51.050;6.246;2024-03-08T07:16:32;45.40;;;18.27;;
3573;SDS011;1801;51.050;6.246;2024-03-08T07:18:57;40.43;;;18.50;;
3573;SDS011;1801;51.050;6.246;2024-03-08T07:21:23;41.88;;;18.02;;
3573;SDS011;1801;51.050;6.246;2024-03-08T07:23:49;43.00;;;18.00;;
3573;SDS011;1801;51.050;6.246;2024-03-08T07:26:26;44.55;;;19.20;;
3573;SDS011;1801;51.050;6.246;2024-03-08T07:28:52;41.63;;;17.63;;
3573;SDS011;1801;51.050;6.246;2024-03-08T07:31:19;47.63;;;17.35;;
3573;SDS011;1801;51.050;6.246;2024-03-08T07:33:50;41.75;;;18.70;;
3573;SDS011;1801;51.050;6.246;2024-03-08T07:36:17;47.23;;;18.67;;
3573;SDS011;1801;51.050;6.246;2024-03-08T07:38:42;37.03;;;17.58;;
3573;SDS011;1801;51.050;6.246;2024-03-08T07:41:08;51.23;;;19.00;;
3573;SDS011;1801;51.050;6.246;2024-03-08T07:43:33;42.70;;;17.50;;
3573;SDS011;1801;51.050;6.246;2024-03-08T07:45:59;40.53;;;18.47;;
3573;SDS011;1801;51.050;6.246;2024-03-08T07:48:24;48.23;;;21.30;;
3573;SDS011;1801;51.050;6.246;2024-03-08T07:50:49;46.43;;;19.27;;
3573;SDS011;1801;51.050;6.246;2024-03-08T07:53:15;40.70;;;17.73;;
3573;SDS011;1801;51.050;6.246;2024-03-08T07:55:40;40.27;;;18.87;;
3573;SDS011;1801;51.050;6.246;2024-03-08T07:58:07;40.33;;;18.50;;
3573;SDS011;1801;51.050;6.246;2024-03-08T08:00:34;40.55;;;19.20;;
3573;SDS011;1801;51.050;6.246;2024-03-08T08:03:01;39.47;;;17.60;;
3573;SDS011;1801;51.050;6.246;2024-03-08T08:05:26;42.00;;;16.83;;
3573;SDS011;1801;51.050;6.246;2024-03-08T08:07:52;42.57;;;18.60;;
3573;SDS011;1801;51.050;6.246;2024-03-08T08:10:18;36.42;;;18.40;;
3573;SDS011;1801;51.050;6.246;2024-03-08T08:12:46;36.20;;;16.95;;
3573;SDS011;1801;51.050;6.246;2024-03-08T08:15:12;39.07;;;18.63;;
3573;SDS011;1801;51.050;6.246;2024-03-08T08:17:37;40.33;;;18.00;;
3573;SDS011;1801;51.050;6.246;2024-03-08T08:20:03;42.67;;;18.20;;
3573;SDS011;1801;51.050;6.246;2024-03-08T08:22:31;39.25;;;16.65;;
3573;SDS011;1801;51.050;6.246;2024-03-08T08:24:56;42.37;;;18.23;;
3573;SDS011;1801;51.050;6.246;2024-03-08T08:27:21;35.70;;;17.10;;
3573;SDS011;1801;51.050;6.246;2024-03-08T08:29:46;36.73;;;17.03;;
3573;SDS011;1801;51.050;6.246;2024-03-08T08:32:11;42.90;;;18.43;;
3573;SDS011;1801;51.050;6.246;2024-03-08T08:34:37;44.17;;;19.27;;
3573;SDS011;1801;51.050;6.246;2024-03-08T08:37:03;40.30;;;18.67;;
3573;SDS011;1801;51.050;6.246;2024-03-08T08:39:28;36.70;;;17.70;;
3573;SDS011;1801;51.050;6.246;2024-03-08T08:41:53;46.50;;;17.93;;
3573;SDS011;1801;51.050;6.246;2024-03-08T08:44:18;42.30;;;17.43;;
3573;SDS011;1801;51.050;6.246;2024-03-08T08:46:45;44.67;;;18.53;;
3573;SDS011;1801;51.050;6.246;2024-03-08T08:49:11;48.53;;;17.70;;
3573;SDS011;1801;51.050;6.246;2024-03-08T08:51:40;48.55;;;19.38;;
3573;SDS011;1801;51.050;6.246;2024-03-08T08:54:05;33.97;;;16.30;;
3573;SDS011;1801;51.050;6.246;2024-03-08T08:56:31;40.10;;;17.45;;
3573;SDS011;1801;51.050;6.246;2024-03-08T08:58:56;42.60;;;19.07;;
3573;SDS011;1801;51.050;6.246;2024-03-08T09:01:22;41.90;;;16.53;;
3573;SDS011;1801;51.050;6.246;2024-03-08T09:03:48;40.43;;;17.40;;
3573;SDS011;1801;51.050;6.246;2024-03-08T09:06:15;34.80;;;18.20;;
3573;SDS011;1801;51.050;6.246;2024-03-08T09:08:41;32.70;;;15.37;;
3573;SDS011;1801;51.050;6.246;2024-03-08T09:11:07;41.10;;;18.00;;
3573;SDS011;1801;51.050;6.246;2024-03-08T09:13:32;36.40;;;18.07;;
3573;SDS011;1801;51.050;6.246;2024-03-08T09:16:01;37.83;;;17.90;;
3573;SDS011;1801;51.050;6.246;2024-03-08T09:18:27;39.80;;;18.57;;
3573;SDS011;1801;51.050;6.246;2024-03-08T09:20:52;33.07;;;17.00;;
3573;SDS011;1801;51.050;6.246;2024-03-08T09:23:22;39.30;;;16.00;;
3573;SDS011;1801;51.050;6.246;2024-03-08T09:25:47;37.63;;;17.47;;
3573;SDS011;1801;51.050;6.246;2024-03-08T09:28:12;43.60;;;18.47;;
3573;SDS011;1801;51.050;6.246;2024-03-08T09:30:38;38.60;;;17.07;;
3573;SDS011;1801;51.050;6.246;2024-03-08T09:33:05;31.20;;;15.43;;
3573;SDS011;1801;51.050;6.246;2024-03-08T09:35:32;34.47;;;16.40;;
3573;SDS011;1801;51.050;6.246;2024-03-08T09:37:57;36.57;;;17.40;;
3573;SDS011;1801;51.050;6.246;2024-03-08T09:40:24;30.43;;;16.33;;
3573;SDS011;1801;51.050;6.246;2024-03-08T09:42:51;38.30;;;18.53;;
3573;SDS011;1801;51.050;6.246;2024-03-08T09:45:17;35.13;;;16.67;;
3573;SDS011;1801;51.050;6.246;2024-03-08T09:47:45;43.17;;;18.70;;
3573;SDS011;1801;51.050;6.246;2024-03-08T09:50:10;32.43;;;14.73;;
3573;SDS011;1801;51.050;6.246;2024-03-08T09:52:38;36.87;;;18.53;;
3573;SDS011;1801;51.050;6.246;2024-03-08T09:55:07;38.40;;;17.20;;
3573;SDS011;1801;51.050;6.246;2024-03-08T09:57:33;34.10;;;16.67;;
3573;SDS011;1801;51.050;6.246;2024-03-08T09:59:58;33.60;;;16.93;;
3573;SDS011;1801;51.050;6.246;2024-03-08T10:02:24;32.10;;;17.67;;
3573;SDS011;1801;51.050;6.246;2024-03-08T10:04:49;39.53;;;16.03;;
3573;SDS011;1801;51.050;6.246;2024-03-08T10:07:18;34.10;;;17.37;;
3573;SDS011;1801;51.050;6.246;2024-03-08T10:09:43;32.90;;;15.40;;
3573;SDS011;1801;51.050;6.246;2024-03-08T10:12:14;33.30;;;17.20;;
3573;SDS011;1801;51.050;6.246;2024-03-08T10:14:40;29.00;;;15.70;;
3573;SDS011;1801;51.050;6.246;2024-03-08T10:17:06;31.90;;;14.77;;
3573;SDS011;1801;51.050;6.246;2024-03-08T10:19:32;34.30;;;15.83;;
3573;SDS011;1801;51.050;6.246;2024-03-08T10:21:57;33.60;;;17.07;;
3573;SDS011;1801;51.050;6.246;2024-03-08T10:24:23;26.73;;;14.10;;
3573;SDS011;1801;51.050;6.246;2024-03-08T10:26:51;35.90;;;15.40;;
3573;SDS011;1801;51.050;6.246;2024-03-08T10:29:16;27.83;;;15.80;;
3573;SDS011;1801;51.050;6.246;2024-03-08T10:31:43;32.93;;;15.53;;
3573;SDS011;1801;51.050;6.246;2024-03-08T10:34:09;29.33;;;15.90;;
3573;SDS011;1801;51.050;6.246;2024-03-08T10:36:34;32.20;;;15.40;;
3573;SDS011;1801;51.050;6.246;2024-03-08T10:39:00;30.60;;;15.17;;
3573;SDS011;1801;51.050;6.246;2024-03-08T10:41:26;30.33;;;16.00;;
3573;SDS011;1801;51.050;6.246;2024-03-08T10:46:29;30.93;;;14.87;;
3573;SDS011;1801;51.050;6.246;2024-03-08T10:48:55;25.80;;;13.70;;
3573;SDS011;1801;51.050;6.246;2024-03-08T10:51:23;28.23;;;15.37;;
3573;SDS011;1801;51.050;6.246;2024-03-08T10:53:49;24.10;;;14.53;;
3573;SDS011;1801;51.050;6.246;2024-03-08T10:56:16;29.60;;;14.77;;
3573;SDS011;1801;51.050;6.246;2024-03-08T10:58:41;32.80;;;15.03;;
3573;SDS011;1801;51.050;6.246;2024-03-08T11:01:07;34.07;;;16.80;;
3573;SDS011;1801;51.050;6.246;2024-03-08T11:06:13;31.50;;;14.30;;
3573;SDS011;1801;51.050;6.246;2024-03-08T11:08:40;23.00;;;13.33;;
3573;SDS011;1801;51.050;6.246;2024-03-08T11:11:05;24.07;;;12.90;;
3573;SDS011;1801;51.050;6.246;2024-03-08T11:15:59;22.67;;;12.23;;
3573;SDS011;1801;51.050;6.246;2024-03-08T11:18:25;22.67;;;11.80;;
3573;SDS011;1801;51.050;6.246;2024-03-08T11:20:53;23.37;;;12.90;;
3573;SDS011;1801;51.050;6.246;2024-03-08T11:23:18;26.10;;;13.63;;
3573;SDS011;1801;51.050;6.246;2024-03-08T11:25:47;20.43;;;11.03;;
3573;SDS011;1801;51.050;6.246;2024-03-08T11:28:18;25.73;;;13.00;;
3573;SDS011;1801;51.050;6.246;2024-03-08T11:30:45;21.27;;;12.20;;
3573;SDS011;1801;51.050;6.246;2024-03-08T11:33:12;21.53;;;12.13;;
3573;SDS011;1801;51.050;6.246;2024-03-08T11:35:38;24.97;;;12.50;;
3573;SDS011;1801;51.050;6.246;2024-03-08T11:38:04;21.77;;;12.10;;
3573;SDS011;1801;51.050;6.246;2024-03-08T11:40:29;20.63;;;11.93;;
3573;SDS011;1801;51.050;6.246;2024-03-08T11:42:54;22.13;;;13.53;;
3573;SDS011;1801;51.050;6.246;2024-03-08T11:45:21;25.00;;;12.03;;
3573;SDS011;1801;51.050;6.246;2024-03-08T11:47:47;28.87;;;12.90;;
3573;SDS011;1801;51.050;6.246;2024-03-08T11:50:13;22.50;;;13.13;;
3573;SDS011;1801;51.050;6.246;2024-03-08T11:52:38;25.93;;;13.03;;
3573;SDS011;1801;51.050;6.246;2024-03-08T11:55:05;23.13;;;12.70;;
3573;SDS011;1801;51.050;6.246;2024-03-08T11:57:31;23.83;;;12.90;;
3573;SDS011;1801;51.050;6.246;2024-03-08T11:59:57;27.53;;;13.03;;
3573;SDS011;1801;51.050;6.246;2024-03-08T12:02:23;26.53;;;13.17;;
3573;SDS011;1801;51.050;6.246;2024-03-08T12:04:55;27.40;;;13.97;;
3573;SDS011;1801;51.050;6.246;2024-03-08T12:07:22;18.17;;;12.10;;
3573;SDS011;1801;51.050;6.246;2024-03-08T12:12:37;28.60;;;12.77;;
3573;SDS011;1801;51.050;6.246;2024-03-08T12:15:02;24.57;;;13.43;;
3573;SDS011;1801;51.050;6.246;2024-03-08T12:17:29;23.97;;;12.70;;
3573;SDS011;1801;51.050;6.246;2024-03-08T12:19:55;23.60;;;13.57;;
3573;SDS011;1801;51.050;6.246;2024-03-08T12:22:26;21.70;;;12.30;;
3573;SDS011;1801;51.050;6.246;2024-03-08T12:25:04;22.70;;;12.67;;
3573;SDS011;1801;51.050;6.246;2024-03-08T12:27:30;27.53;;;12.83;;
3573;SDS011;1801;51.050;6.246;2024-03-08T12:29:56;20.70;;;12.57;;
3573;SDS011;1801;51.050;6.246;2024-03-08T12:32:21;28.10;;;13.60;;
3573;SDS011;1801;51.050;6.246;2024-03-08T12:34:51;25.70;;;14.43;;
3573;SDS011;1801;51.050;6.246;2024-03-08T12:37:17;21.67;;;12.03;;
3573;SDS011;1801;51.050;6.246;2024-03-08T12:39:42;21.80;;;12.87;;
3573;SDS011;1801;51.050;6.246;2024-03-08T12:42:07;23.60;;;13.67;;
3573;SDS011;1801;51.050;6.246;2024-03-08T12:44:33;22.80;;;13.80;;
3573;SDS011;1801;51.050;6.246;2024-03-08T12:46:58;25.53;;;12.63;;
3573;SDS011;1801;51.050;6.246;2024-03-08T12:49:24;21.30;;;14.00;;
3573;SDS011;1801;51.050;6.246;2024-03-08T12:51:50;17.70;;;12.10;;
3573;SDS011;1801;51.050;6.246;2024-03-08T12:54:17;22.27;;;13.97;;
3573;SDS011;1801;51.050;6.246;2024-03-08T12:56:42;21.40;;;13.47;;
3573;SDS011;1801;51.050;6.246;2024-03-08T12:59:08;20.10;;;12.67;;
3573;SDS011;1801;51.050;6.246;2024-03-08T13:01:33;23.70;;;13.50;;
3573;SDS011;1801;51.050;6.246;2024-03-08T13:03:58;23.27;;;13.00;;
3573;SDS011;1801;51.050;6.246;2024-03-08T13:06:24;24.97;;;12.90;;
3573;SDS011;1801;51.050;6.246;2024-03-08T13:08:52;22.67;;;13.20;;
3573;SDS011;1801;51.050;6.246;2024-03-08T13:11:18;22.70;;;12.80;;
3573;SDS011;1801;51.050;6.246;2024-03-08T13:13:44;21.10;;;13.57;;
3573;SDS011;1801;51.050;6.246;2024-03-08T13:16:09;21.00;;;14.10;;
3573;SDS011;1801;51.050;6.246;2024-03-08T13:18:35;22.60;;;14.30;;
3573;SDS011;1801;51.050;6.246;2024-03-08T13:21:00;24.73;;;14.10;;
3573;SDS011;1801;51.050;6.246;2024-03-08T13:23:31;22.97;;;14.93;;
3573;SDS011;1801;51.050;6.246;2024-03-08T13:25:57;26.00;;;14.73;;
3573;SDS011;1801;51.050;6.246;2024-03-08T13:28:22;22.50;;;14.10;;
3573;SDS011;1801;51.050;6.246;2024-03-08T13:30:55;23.00;;;15.27;;
3573;SDS011;1801;51.050;6.246;2024-03-08T13:33:22;24.27;;;15.13;;
3573;SDS011;1801;51.050;6.246;2024-03-08T13:35:48;22.63;;;14.13;;
3573;SDS011;1801;51.050;6.246;2024-03-08T13:38:14;24.23;;;14.10;;
3573;SDS011;1801;51.050;6.246;2024-03-08T13:40:40;21.33;;;14.30;;
3573;SDS011;1801;51.050;6.246;2024-03-08T13:43:05;21.00;;;14.50;;
3573;SDS011;1801;51.050;6.246;2024-03-08T13:45:32;27.17;;;14.43;;
3573;SDS011;1801;51.050;6.246;2024-03-08T13:47:58;21.00;;;14.00;;
3573;SDS011;1801;51.050;6.246;2024-03-08T13:50:24;22.93;;;15.47;;
3573;SDS011;1801;51.050;6.246;2024-03-08T13:52:51;25.60;;;14.00;;
3573;SDS011;1801;51.050;6.246;2024-03-08T13:55:16;27.50;;;14.30;;
3573;SDS011;1801;51.050;6.246;2024-03-08T13:57:42;26.73;;;15.47;;
3573;SDS011;1801;51.050;6.246;2024-03-08T14:00:07;23.63;;;14.37;;
3573;SDS011;1801;51.050;6.246;2024-03-08T14:02:33;26.90;;;14.40;;
3573;SDS011;1801;51.050;6.246;2024-03-08T14:05:00;24.83;;;13.47;;
3573;SDS011;1801;51.050;6.246;2024-03-08T14:07:26;24.33;;;13.20;;
3573;SDS011;1801;51.050;6.246;2024-03-08T14:09:54;18.63;;;12.37;;
3573;SDS011;1801;51.050;6.246;2024-03-08T14:12:19;21.13;;;13.83;;
3573;SDS011;1801;51.050;6.246;2024-03-08T14:14:44;22.60;;;14.30;;
3573;SDS011;1801;51.050;6.246;2024-03-08T14:17:10;21.47;;;13.33;;
3573;SDS011;1801;51.050;6.246;2024-03-08T14:19:36;21.27;;;12.43;;
3573;SDS011;1801;51.050;6.246;2024-03-08T14:22:01;24.67;;;13.43;;
3573;SDS011;1801;51.050;6.246;2024-03-08T14:24:29;22.00;;;13.00;;
3573;SDS011;1801;51.050;6.246;2024-03-08T14:26:54;18.03;;;12.40;;
3573;SDS011;1801;51.050;6.246;2024-03-08T14:29:19;20.70;;;12.03;;
3573;SDS011;1801;51.050;6.246;2024-03-08T14:31:44;20.80;;;13.20;;
3573;SDS011;1801;51.050;6.246;2024-03-08T14:34:10;24.37;;;13.43;;
3573;SDS011;1801;51.050;6.246;2024-03-08T14:36:35;24.03;;;12.33;;
3573;SDS011;1801;51.050;6.246;2024-03-08T14:39:00;19.80;;;11.67;;
3573;SDS011;1801;51.050;6.246;2024-03-08T14:41:26;22.47;;;11.80;;
3573;SDS011;1801;51.050;6.246;2024-03-08T14:43:51;19.33;;;11.90;;
3573;SDS011;1801;51.050;6.246;2024-03-08T14:46:22;18.80;;;11.50;;
3573;SDS011;1801;51.050;6.246;2024-03-08T14:48:48;20.93;;;12.80;;
3573;SDS011;1801;51.050;6.246;2024-03-08T14:51:13;21.10;;;12.80;;